UAL384 KDEN-PHNL
Flight info
| Callsign | UAL384 |
|---|---|
| Flight time | N/A |
| Altitude | 34000 |
| Route | COORZ7 VOAXA Q134 TATOO OAK/N0477F360 ALANN GITLE DIALO R576 DENNS MAGGI3 |
| Aircraft | B77W/H-SDE1E2E3FGHIJ2J3J4J5M1RWXY/LB1D1 |
Departure
| Time | 2026-05-06 20:23 |
|---|---|
| Airport | Denver International Airport (KDEN) |
Arrival
| Time | N/A |
|---|---|
| Airport | Daniel K. Inouye International Airport (PHNL) |
| Time | Latitude | Longitude | Altitude | Speed | Heading |
|---|---|---|---|---|---|
| 2026-05-06 19:53 | 39.85797 | -104.67196 | 5400 ft | 0 kts | 0° |
| 2026-05-06 20:08 | 39.85791 | -104.67196 | 5388 ft | 2 kts | 0° |
| 2026-05-06 20:08 | 39.85775 | -104.67196 | 5380 ft | 2 kts | 0° |
| 2026-05-06 20:08 | 39.85759 | -104.67196 | 5391 ft | 2 kts | 0° |
| 2026-05-06 20:08 | 39.85743 | -104.67196 | 5384 ft | 2 kts | 0° |
| 2026-05-06 20:09 | 39.85727 | -104.67196 | 5386 ft | 2 kts | 1° |
| 2026-05-06 20:09 | 39.85710 | -104.67197 | 5388 ft | 2 kts | 1° |
| 2026-05-06 20:09 | 39.85694 | -104.67197 | 5387 ft | 2 kts | 1° |
| 2026-05-06 20:09 | 39.85678 | -104.67197 | 5389 ft | 2 kts | 1° |
| 2026-05-06 20:10 | 39.85672 | -104.67197 | 5389 ft | 0 kts | 1° |
| 2026-05-06 20:12 | 39.85675 | -104.67198 | 5389 ft | 1 kts | 351° |
| 2026-05-06 20:13 | 39.85684 | -104.67210 | 5384 ft | 3 kts | 307° |
| 2026-05-06 20:13 | 39.85676 | -104.67242 | 5387 ft | 5 kts | 225° |
| 2026-05-06 20:13 | 39.85626 | -104.67270 | 5384 ft | 9 kts | 208° |
| 2026-05-06 20:13 | 39.85594 | -104.67335 | 5391 ft | 9 kts | 265° |
| 2026-05-06 20:14 | 39.85591 | -104.67417 | 5391 ft | 9 kts | 269° |
| 2026-05-06 20:14 | 39.85591 | -104.67531 | 5384 ft | 16 kts | 270° |
| 2026-05-06 20:14 | 39.85591 | -104.67682 | 5391 ft | 17 kts | 270° |
| 2026-05-06 20:14 | 39.85593 | -104.67833 | 5391 ft | 17 kts | 271° |
| 2026-05-06 20:15 | 39.85594 | -104.67973 | 5391 ft | 14 kts | 270° |
| 2026-05-06 20:15 | 39.85595 | -104.68096 | 5391 ft | 14 kts | 271° |
| 2026-05-06 20:15 | 39.85596 | -104.68221 | 5391 ft | 14 kts | 270° |
| 2026-05-06 20:15 | 39.85598 | -104.68352 | 5377 ft | 16 kts | 271° |
| 2026-05-06 20:16 | 39.85596 | -104.68470 | 5375 ft | 11 kts | 259° |
| 2026-05-06 20:16 | 39.85538 | -104.68515 | 5375 ft | 11 kts | 184° |
| 2026-05-06 20:16 | 39.85464 | -104.68518 | 5377 ft | 11 kts | 181° |
| 2026-05-06 20:16 | 39.85389 | -104.68519 | 5374 ft | 11 kts | 180° |
| 2026-05-06 20:17 | 39.85308 | -104.68520 | 5376 ft | 12 kts | 180° |
| 2026-05-06 20:17 | 39.85231 | -104.68525 | 5372 ft | 9 kts | 195° |
| 2026-05-06 20:17 | 39.85208 | -104.68595 | 5372 ft | 10 kts | 263° |
| 2026-05-06 20:17 | 39.85203 | -104.68721 | 5365 ft | 18 kts | 269° |
| 2026-05-06 20:18 | 39.85199 | -104.68880 | 5360 ft | 14 kts | 268° |
| 2026-05-06 20:18 | 39.85197 | -104.69011 | 5358 ft | 15 kts | 269° |
| 2026-05-06 20:18 | 39.85196 | -104.69145 | 5355 ft | 15 kts | 271° |
| 2026-05-06 20:18 | 39.85199 | -104.69280 | 5350 ft | 15 kts | 272° |
| 2026-05-06 20:19 | 39.85203 | -104.69413 | 5346 ft | 15 kts | 268° |
| 2026-05-06 20:19 | 39.85202 | -104.69521 | 5342 ft | 12 kts | 270° |
| 2026-05-06 20:19 | 39.85204 | -104.69619 | 5342 ft | 7 kts | 272° |
| 2026-05-06 20:19 | 39.85223 | -104.69652 | 5341 ft | 0 kts | 348° |
| 2026-05-06 20:22 | 39.85317 | -104.69659 | 5341 ft | 26 kts | 360° |
| 2026-05-06 20:22 | 39.85599 | -104.69655 | 5347 ft | 64 kts | 1° |
| 2026-05-06 20:22 | 39.86272 | -104.69649 | 5340 ft | 129 kts | 0° |
| 2026-05-06 20:22 | 39.87383 | -104.69637 | 5344 ft | 190 kts | 0° |
| 2026-05-06 20:23 | 39.88850 | -104.69611 | 5623 ft | 217 kts | 1° |
| 2026-05-06 20:23 | 39.90363 | -104.69586 | 6348 ft | 223 kts | 1° |
| 2026-05-06 20:23 | 39.91940 | -104.69565 | 7040 ft | 230 kts | 0° |
| 2026-05-06 20:23 | 39.93578 | -104.69544 | 7710 ft | 235 kts | 0° |
| 2026-05-06 20:24 | 39.95187 | -104.69520 | 8239 ft | 233 kts | 0° |
| 2026-05-06 20:24 | 39.96826 | -104.69492 | 8463 ft | 239 kts | 0° |
| 2026-05-06 20:24 | 39.98509 | -104.69461 | 8672 ft | 245 kts | 0° |
| 2026-05-06 20:24 | 40.00229 | -104.69423 | 8887 ft | 250 kts | 0° |
| 2026-05-06 20:25 | 40.02010 | -104.69380 | 9120 ft | 255 kts | 0° |
| 2026-05-06 20:25 | 40.03765 | -104.69351 | 9347 ft | 256 kts | 355° |
| 2026-05-06 20:25 | 40.05415 | -104.70068 | 9570 ft | 251 kts | 319° |
| 2026-05-06 20:25 | 40.06376 | -104.71890 | 9861 ft | 245 kts | 282° |
| 2026-05-06 20:26 | 40.06300 | -104.74079 | 10080 ft | 249 kts | 247° |
| 2026-05-06 20:26 | 40.05499 | -104.76163 | 10170 ft | 259 kts | 250° |
| 2026-05-06 20:26 | 40.05014 | -104.78478 | 10324 ft | 271 kts | 258° |
| 2026-05-06 20:26 | 40.04573 | -104.80901 | 10443 ft | 285 kts | 256° |
| 2026-05-06 20:27 | 40.04072 | -104.83457 | 10638 ft | 296 kts | 256° |
| 2026-05-06 20:27 | 40.03545 | -104.86116 | 10956 ft | 302 kts | 256° |
| 2026-05-06 20:27 | 40.03026 | -104.88748 | 11342 ft | 305 kts | 256° |
| 2026-05-06 20:27 | 40.02495 | -104.91430 | 11772 ft | 306 kts | 256° |
| 2026-05-06 20:28 | 40.01950 | -104.94175 | 12182 ft | 319 kts | 256° |
| 2026-05-06 20:28 | 40.01382 | -104.97016 | 12888 ft | 327 kts | 257° |
| 2026-05-06 20:28 | 40.00803 | -104.99901 | 13733 ft | 330 kts | 257° |
| 2026-05-06 20:28 | 40.00218 | -105.02808 | 14567 ft | 332 kts | 257° |
| 2026-05-06 20:29 | 39.99630 | -105.05724 | 15407 ft | 333 kts | 257° |
| 2026-05-06 20:29 | 39.99515 | -105.06292 | 15568 ft | 334 kts | 257° |
| 2026-05-06 20:29 | 39.99000 | -105.08837 | 16261 ft | 336 kts | 257° |
| 2026-05-06 20:30 | 39.98401 | -105.11798 | 17076 ft | 339 kts | 258° |
| 2026-05-06 20:30 | 39.97183 | -105.17799 | 18698 ft | 345 kts | 258° |
| 2026-05-06 20:30 | 39.96564 | -105.20843 | 19377 ft | 349 kts | 258° |
| 2026-05-06 20:31 | 39.95938 | -105.23918 | 20031 ft | 354 kts | 258° |
| 2026-05-06 20:31 | 39.95300 | -105.27049 | 20691 ft | 359 kts | 258° |
| 2026-05-06 20:31 | 39.94653 | -105.30215 | 21295 ft | 365 kts | 258° |
| 2026-05-06 20:31 | 39.93994 | -105.33439 | 21883 ft | 371 kts | 258° |
| 2026-05-06 20:32 | 39.93326 | -105.36703 | 22547 ft | 375 kts | 258° |
| 2026-05-06 20:32 | 39.92649 | -105.39998 | 23233 ft | 379 kts | 258° |
| 2026-05-06 20:32 | 39.91960 | -105.43340 | 23859 ft | 384 kts | 258° |
| 2026-05-06 20:32 | 39.91261 | -105.46736 | 24343 ft | 390 kts | 259° |
| 2026-05-06 20:33 | 39.90544 | -105.50213 | 24791 ft | 397 kts | 259° |
| 2026-05-06 20:33 | 39.89834 | -105.53658 | 25262 ft | 403 kts | 259° |
| 2026-05-06 20:33 | 39.89100 | -105.57206 | 25716 ft | 409 kts | 260° |
| 2026-05-06 20:33 | 39.88353 | -105.60802 | 26188 ft | 414 kts | 260° |
| 2026-05-06 20:34 | 39.87596 | -105.64449 | 26576 ft | 420 kts | 261° |
| 2026-05-06 20:34 | 39.86827 | -105.68152 | 26925 ft | 429 kts | 261° |
| 2026-05-06 20:34 | 39.86048 | -105.71934 | 27364 ft | 434 kts | 263° |
| 2026-05-06 20:34 | 39.85473 | -105.75810 | 27506 ft | 442 kts | 269° |
| 2026-05-06 20:35 | 39.85121 | -105.79832 | 27589 ft | 452 kts | 271° |
| 2026-05-06 20:35 | 39.84844 | -105.83960 | 27683 ft | 465 kts | 272° |
| 2026-05-06 20:35 | 39.84564 | -105.88211 | 27802 ft | 477 kts | 272° |
| 2026-05-06 20:35 | 39.84250 | -105.92553 | 27960 ft | 487 kts | 271° |
| 2026-05-06 20:36 | 39.83893 | -105.96974 | 28270 ft | 493 kts | 271° |
| 2026-05-06 20:36 | 39.83509 | -106.01420 | 28592 ft | 498 kts | 271° |
| 2026-05-06 20:36 | 39.83108 | -106.05922 | 28894 ft | 503 kts | 271° |
| 2026-05-06 20:36 | 39.82703 | -106.10456 | 29222 ft | 507 kts | 271° |
| 2026-05-06 20:37 | 39.82292 | -106.15019 | 29586 ft | 508 kts | 271° |
| 2026-05-06 20:37 | 39.81881 | -106.19590 | 30022 ft | 509 kts | 272° |
| 2026-05-06 20:37 | 39.81465 | -106.24158 | 30478 ft | 508 kts | 271° |
| 2026-05-06 20:37 | 39.81056 | -106.28642 | 31006 ft | 505 kts | 271° |
| 2026-05-06 20:38 | 39.80643 | -106.33160 | 31596 ft | 501 kts | 271° |
| 2026-05-06 20:38 | 39.80232 | -106.37649 | 32074 ft | 499 kts | 271° |
| 2026-05-06 20:38 | 39.79825 | -106.42119 | 32513 ft | 497 kts | 271° |
| 2026-05-06 20:38 | 39.79419 | -106.46572 | 32935 ft | 496 kts | 271° |
| 2026-05-06 20:39 | 39.79011 | -106.51023 | 33333 ft | 494 kts | 271° |
| 2026-05-06 20:39 | 39.78611 | -106.55442 | 33750 ft | 492 kts | 271° |
| 2026-05-06 20:39 | 39.78282 | -106.59854 | 34109 ft | 491 kts | 272° |
| 2026-05-06 20:40 | 39.77731 | -106.68756 | 34064 ft | 493 kts | 273° |
| 2026-05-06 20:40 | 39.77185 | -106.77588 | 34073 ft | 489 kts | 273° |
| 2026-05-06 20:41 | 39.76612 | -106.86400 | 34067 ft | 490 kts | 273° |
| 2026-05-06 20:41 | 39.76016 | -106.95228 | 34138 ft | 491 kts | 273° |
| 2026-05-06 20:42 | 39.75409 | -107.04067 | 34129 ft | 492 kts | 273° |
| 2026-05-06 20:42 | 39.74793 | -107.12909 | 34123 ft | 491 kts | 274° |
| 2026-05-06 20:43 | 39.74172 | -107.21770 | 34088 ft | 493 kts | 273° |
| 2026-05-06 20:43 | 39.73544 | -107.30652 | 34078 ft | 494 kts | 273° |
| 2026-05-06 20:44 | 39.72907 | -107.39483 | 34079 ft | 494 kts | 273° |
| 2026-05-06 20:44 | 39.72258 | -107.48405 | 34094 ft | 493 kts | 274° |
| 2026-05-06 20:45 | 39.71721 | -107.55772 | 34104 ft | 493 kts | 274° |
| 2026-05-06 20:45 | 39.71067 | -107.64629 | 34102 ft | 492 kts | 274° |
| 2026-05-06 20:46 | 39.70406 | -107.73476 | 34098 ft | 492 kts | 273° |
| 2026-05-06 20:46 | 39.69742 | -107.82283 | 34054 ft | 490 kts | 273° |
| 2026-05-06 20:47 | 39.69071 | -107.91084 | 34065 ft | 490 kts | 274° |
| 2026-05-06 20:47 | 39.68396 | -107.99889 | 34051 ft | 491 kts | 273° |
| 2026-05-06 20:48 | 39.67711 | -108.08708 | 34078 ft | 492 kts | 273° |
| 2026-05-06 20:48 | 39.67013 | -108.17560 | 34074 ft | 493 kts | 273° |
| 2026-05-06 20:49 | 39.66310 | -108.26419 | 34074 ft | 493 kts | 273° |
| 2026-05-06 20:49 | 39.65600 | -108.35268 | 34071 ft | 493 kts | 273° |
| 2026-05-06 20:50 | 39.64885 | -108.44106 | 34040 ft | 491 kts | 272° |
| 2026-05-06 20:50 | 39.64169 | -108.52888 | 34081 ft | 488 kts | 272° |
| 2026-05-06 20:51 | 39.63447 | -108.61632 | 34088 ft | 487 kts | 272° |
| 2026-05-06 20:51 | 39.62726 | -108.70351 | 34087 ft | 486 kts | 272° |
| 2026-05-06 20:52 | 39.61997 | -108.79000 | 34037 ft | 485 kts | 272° |
| 2026-05-06 20:52 | 39.61262 | -108.87667 | 34078 ft | 483 kts | 272° |
| 2026-05-06 20:53 | 39.60526 | -108.96299 | 34102 ft | 482 kts | 272° |
| 2026-05-06 20:53 | 39.59778 | -109.04995 | 34106 ft | 483 kts | 272° |
| 2026-05-06 20:54 | 39.59032 | -109.13595 | 34068 ft | 483 kts | 271° |
| 2026-05-06 20:54 | 39.58272 | -109.22264 | 34081 ft | 484 kts | 271° |
| 2026-05-06 20:55 | 39.57503 | -109.30933 | 34119 ft | 485 kts | 271° |
| 2026-05-06 20:55 | 39.56727 | -109.39620 | 34127 ft | 485 kts | 271° |
| 2026-05-06 20:56 | 39.55947 | -109.48308 | 34096 ft | 485 kts | 271° |
| 2026-05-06 20:56 | 39.55158 | -109.56990 | 34117 ft | 485 kts | 271° |
| 2026-05-06 20:57 | 39.54363 | -109.65668 | 34128 ft | 485 kts | 271° |
| 2026-05-06 20:57 | 39.53563 | -109.74341 | 34118 ft | 485 kts | 271° |
| 2026-05-06 20:58 | 39.52756 | -109.83008 | 34090 ft | 484 kts | 270° |
| 2026-05-06 20:58 | 39.51946 | -109.91656 | 34112 ft | 483 kts | 271° |
| 2026-05-06 20:59 | 39.51121 | -110.00301 | 34122 ft | 485 kts | 269° |
| 2026-05-06 20:59 | 39.50049 | -110.08945 | 34141 ft | 486 kts | 267° |
| 2026-05-06 21:00 | 39.48849 | -110.17588 | 34092 ft | 488 kts | 266° |
| 2026-05-06 21:00 | 39.47660 | -110.26193 | 34075 ft | 489 kts | 267° |
| 2026-05-06 21:01 | 39.46496 | -110.34880 | 34059 ft | 491 kts | 267° |
| 2026-05-06 21:01 | 39.45997 | -110.38641 | 34053 ft | 492 kts | 267° |
| 2026-05-06 21:03 | 39.45246 | -110.44264 | 34045 ft | 493 kts | 267° |
| 2026-05-06 21:03 | 39.44079 | -110.52932 | 34027 ft | 492 kts | 267° |
| 2026-05-06 21:04 | 39.43812 | -110.54908 | 34031 ft | 492 kts | 267° |
| 2026-05-06 21:04 | 39.42930 | -110.61420 | 34018 ft | 492 kts | 267° |
| 2026-05-06 21:05 | 39.41744 | -110.70131 | 34021 ft | 491 kts | 267° |
| 2026-05-06 21:05 | 39.40553 | -110.78824 | 34013 ft | 491 kts | 267° |
| 2026-05-06 21:06 | 39.39355 | -110.87514 | 34028 ft | 490 kts | 266° |
| 2026-05-06 21:06 | 39.38155 | -110.96176 | 34017 ft | 490 kts | 266° |
| 2026-05-06 21:07 | 39.36948 | -111.04840 | 34031 ft | 490 kts | 266° |
| 2026-05-06 21:07 | 39.35738 | -111.13499 | 34041 ft | 490 kts | 266° |
| 2026-05-06 21:08 | 39.34516 | -111.22158 | 34042 ft | 489 kts | 266° |
| 2026-05-06 21:08 | 39.33291 | -111.30779 | 34066 ft | 489 kts | 266° |
| 2026-05-06 21:09 | 39.32059 | -111.39428 | 34057 ft | 489 kts | 266° |
| 2026-05-06 21:09 | 39.30821 | -111.48084 | 34074 ft | 491 kts | 266° |
| 2026-05-06 21:10 | 39.29567 | -111.56765 | 34068 ft | 492 kts | 266° |
| 2026-05-06 21:10 | 39.28318 | -111.65391 | 34061 ft | 492 kts | 266° |
| 2026-05-06 21:11 | 39.27051 | -111.74079 | 34048 ft | 491 kts | 266° |
| 2026-05-06 21:11 | 39.25784 | -111.82718 | 34039 ft | 490 kts | 265° |
| 2026-05-06 21:12 | 39.24515 | -111.91340 | 34048 ft | 489 kts | 265° |
| 2026-05-06 21:12 | 39.23240 | -111.99961 | 34053 ft | 489 kts | 265° |
| 2026-05-06 21:13 | 39.21958 | -112.08570 | 34069 ft | 489 kts | 265° |
| 2026-05-06 21:13 | 39.20669 | -112.17189 | 34083 ft | 490 kts | 265° |
| 2026-05-06 21:14 | 39.19372 | -112.25808 | 34119 ft | 490 kts | 265° |
| 2026-05-06 21:14 | 39.18069 | -112.34422 | 34147 ft | 490 kts | 265° |
| 2026-05-06 21:15 | 39.16761 | -112.43035 | 34147 ft | 490 kts | 265° |
| 2026-05-06 21:15 | 39.15445 | -112.51655 | 34081 ft | 490 kts | 265° |
| 2026-05-06 21:16 | 39.14128 | -112.60279 | 34079 ft | 491 kts | 265° |
| 2026-05-06 21:16 | 39.12811 | -112.68922 | 34075 ft | 492 kts | 265° |
| 2026-05-06 21:17 | 39.11498 | -112.77501 | 34075 ft | 492 kts | 265° |
| 2026-05-06 21:17 | 39.10168 | -112.86137 | 34067 ft | 491 kts | 264° |
| 2026-05-06 21:18 | 39.08832 | -112.94762 | 34074 ft | 491 kts | 264° |
| 2026-05-06 21:18 | 39.07491 | -113.03376 | 34076 ft | 491 kts | 264° |
| 2026-05-06 21:19 | 39.06146 | -113.11977 | 34064 ft | 490 kts | 264° |
| 2026-05-06 21:19 | 39.04795 | -113.20568 | 34081 ft | 490 kts | 264° |
| 2026-05-06 21:20 | 39.03439 | -113.29149 | 34091 ft | 490 kts | 264° |
| 2026-05-06 21:20 | 39.02075 | -113.37732 | 34090 ft | 490 kts | 264° |
| 2026-05-06 21:21 | 39.00706 | -113.46318 | 34070 ft | 490 kts | 264° |
| 2026-05-06 21:21 | 38.99328 | -113.54900 | 34083 ft | 491 kts | 264° |
| 2026-05-06 21:22 | 38.97942 | -113.63498 | 34089 ft | 491 kts | 264° |
| 2026-05-06 21:22 | 38.96552 | -113.72085 | 34089 ft | 491 kts | 263° |
| 2026-05-06 21:23 | 38.95152 | -113.80682 | 34074 ft | 491 kts | 263° |
| 2026-05-06 21:23 | 38.93747 | -113.89271 | 34078 ft | 492 kts | 263° |
| 2026-05-06 21:24 | 38.92342 | -113.97810 | 34071 ft | 492 kts | 263° |
| 2026-05-06 21:24 | 38.90924 | -114.06395 | 34071 ft | 491 kts | 263° |
| 2026-05-06 21:25 | 38.89500 | -114.14977 | 34048 ft | 491 kts | 263° |
| 2026-05-06 21:25 | 38.88068 | -114.23550 | 34057 ft | 491 kts | 263° |
| 2026-05-06 21:26 | 38.86634 | -114.32113 | 34062 ft | 492 kts | 263° |
| 2026-05-06 21:26 | 38.85190 | -114.40693 | 34040 ft | 492 kts | 263° |
| 2026-05-06 21:27 | 38.83742 | -114.49258 | 34053 ft | 492 kts | 263° |
| 2026-05-06 21:27 | 38.82285 | -114.57827 | 34055 ft | 492 kts | 263° |
| 2026-05-06 21:28 | 38.80820 | -114.66399 | 34047 ft | 492 kts | 262° |
| 2026-05-06 21:28 | 38.79351 | -114.74966 | 34040 ft | 493 kts | 262° |
| 2026-05-06 21:29 | 38.77871 | -114.83550 | 34027 ft | 493 kts | 262° |
| 2026-05-06 21:29 | 38.76384 | -114.92123 | 34032 ft | 492 kts | 262° |
| 2026-05-06 21:30 | 38.74896 | -115.00678 | 34046 ft | 492 kts | 262° |
| 2026-05-06 21:30 | 38.73402 | -115.09229 | 34028 ft | 492 kts | 262° |
| 2026-05-06 21:31 | 38.71901 | -115.17778 | 34033 ft | 492 kts | 262° |
| 2026-05-06 21:31 | 38.70395 | -115.26314 | 34030 ft | 492 kts | 262° |
| 2026-05-06 21:32 | 38.68892 | -115.34800 | 34008 ft | 492 kts | 262° |
| 2026-05-06 21:32 | 38.66610 | -115.47600 | 34027 ft | 492 kts | 262° |
| 2026-05-06 21:33 | 38.65080 | -115.56138 | 34034 ft | 492 kts | 262° |
| 2026-05-06 21:33 | 38.63544 | -115.64676 | 34013 ft | 493 kts | 261° |
| 2026-05-06 21:34 | 38.62250 | -115.71829 | 34025 ft | 492 kts | 261° |
| 2026-05-06 21:34 | 38.60704 | -115.80349 | 34031 ft | 492 kts | 261° |
| 2026-05-06 21:35 | 38.59152 | -115.88865 | 34033 ft | 492 kts | 261° |